Ryoho Maru No.2 — JD2964 — position and weather

sailwx.info

Track history (hours):
 
Tides and Currents Weather Stations Pressure Air Temp Water Temp Dewpoint Dewpoint Depression Visibility Wind Speed Wind Dir Waves Ship Positions

Ryoho Maru No.2

Last reported at 2015-Apr-23 23:21 UTC. Time now 2015-Apr-25 08:52 UTC.
Position N 36°04' E 141°01'.

Length 57 m; draft 4 m.

Type: Tanker. MMSI: 431001062.

Date/timePositionNaut miles runAvg speedWind from/ knotsBaromVisibWave heightAir tempDewpointWater temp
2015-Apr-23 23:21N 36°04' E 141°01'11 9.7
2015-Apr-23 22:12N 35°54' E 140°57'710.0
2015-Apr-23 21:28N 35°47' E 140°56'19 9.8
2015-Apr-23 19:30N 35°30' E 140°44'1010.2
2015-Apr-23 18:33N 35°22' E 140°37'1010.5
2015-Apr-23 17:33N 35°14' E 140°30'1510.5
2015-Apr-23 16:08N 35°04' E 140°16'6 9.9
2015-Apr-23 15:29N 34°60' E 140°10'12 9.7
2015-Apr-23 14:18N 34°54' E 139°58'8 8.9
2015-Apr-23 13:24N 34°53' E 139°48'8 9.1
2015-Apr-23 12:33N 35°00' E 139°45'9 8.9
2015-Apr-23 11:34N 35°09' E 139°46'9 9.3
2015-Apr-23 10:34N 35°18' E 139°44'8 8.0
2015-Apr-23 09:33N 35°26' E 139°46'9 8.9
2015-Apr-23 08:33N 35°30' E 139°56'4 4.1
2015-Apr-23 07:30N 35°28' E 140°01'0 0.0
2015-Apr-23 06:18N 35°28' E 140°01'0 0.0
2015-Apr-23 05:24N 35°28' E 140°01'0 0.0
2015-Apr-23 04:30N 35°28' E 140°01'0 0.0
2015-Apr-23 03:31N 35°28' E 140°01'4 4.3
2015-Apr-23 02:33N 35°29' E 139°56'9 8.6
2015-Apr-23 01:33N 35°31' E 139°46'1 0.6
2015-Apr-23 00:32N 35°32' E 139°45'1 0.7
2015-Apr-22 23:33N 35°31' E 139°46'2 1.8
2015-Apr-22 22:32N 35°29' E 139°47'0 0.0
2015-Apr-22 21:32N 35°29' E 139°47'0 0.0
2015-Apr-22 20:29N 35°29' E 139°47'0 0.0
2015-Apr-22 19:32N 35°29' E 139°47'0 0.0
2015-Apr-22 18:32N 35°29' E 139°47'0 0.0
2015-Apr-22 17:32N 35°29' E 139°47'0 0.1
2015-Apr-22 16:32N 35°29' E 139°47'0 0.0
2015-Apr-22 15:32N 35°29' E 139°47'0 0.0
2015-Apr-22 14:32N 35°29' E 139°47'0 0.0
2015-Apr-22 13:32N 35°29' E 139°47'0 0.0
2015-Apr-22 12:32N 35°29' E 139°47'0 0.0
2015-Apr-22 11:32N 35°29' E 139°47'0 0.0
2015-Apr-22 10:32N 35°29' E 139°47'0 0.1
2015-Apr-22 09:32N 35°29' E 139°47'0 0.0
2015-Apr-22 08:32N 35°29' E 139°47'0 0.0
2015-Apr-22 07:32N 35°29' E 139°47'0 0.0
2015-Apr-22 06:32N 35°29' E 139°47'0 0.0
2015-Apr-22 05:32N 35°29' E 139°47'0 0.0
2015-Apr-22 04:23N 35°29' E 139°47'0 0.1
2015-Apr-22 03:26N 35°29' E 139°47'0 0.1
2015-Apr-22 02:32N 35°29' E 139°47'0 0.0
2015-Apr-22 01:32N 35°29' E 139°47'0 0.0
2015-Apr-22 00:33N 35°29' E 139°47'8 8.4
2015-Apr-21 23:34N 35°21' E 139°45'9 9.0
2015-Apr-21 22:33N 35°12' E 139°47'9 9.2
2015-Apr-21 21:33N 35°04' E 139°42'1010.0
2015-Apr-21 20:33N 34°58' E 139°33'  
2015-Apr-17 01:26N 34°51' E 139°42'17 8.5
2015-Apr-16 23:29N 34°55' E 140°02'8 8.2
2015-Apr-16 22:33N 34°60' E 140°10'22 7.2
2015-Apr-16 19:27N 35°15' E 140°30'15 7.8
2015-Apr-16 17:33N 35°27' E 140°41'73 9.1
2015-Apr-16 09:31N 36°36' E 141°08'  
Track history (hours):
 
Tides and Currents Weather Stations Pressure Air Temp Water Temp Dewpoint Dewpoint Depression Visibility Wind Speed Wind Dir Waves Ship Positions

Ryoho Maru No.2

Last reported at 2015-Apr-23 23:21 UTC. Time now 2015-Apr-25 08:52 UTC.
Position N 36°04' E 141°01'.

Length 57 m; draft 4 m.

Type: Tanker. MMSI: 431001062.

Date/timePositionNaut miles runAvg speedWind from/ knotsBaromVisibWave heightAir tempDewpointWater temp
2015-Apr-23 23:21N 36°04' E 141°01'11 9.7
2015-Apr-23 22:12N 35°54' E 140°57'710.0
2015-Apr-23 21:28N 35°47' E 140°56'19 9.8
2015-Apr-23 19:30N 35°30' E 140°44'1010.2
2015-Apr-23 18:33N 35°22' E 140°37'1010.5
2015-Apr-23 17:33N 35°14' E 140°30'1510.5
2015-Apr-23 16:08N 35°04' E 140°16'6 9.9
2015-Apr-23 15:29N 34°60' E 140°10'12 9.7
2015-Apr-23 14:18N 34°54' E 139°58'8 8.9
2015-Apr-23 13:24N 34°53' E 139°48'8 9.1
2015-Apr-23 12:33N 35°00' E 139°45'9 8.9
2015-Apr-23 11:34N 35°09' E 139°46'9 9.3
2015-Apr-23 10:34N 35°18' E 139°44'8 8.0
2015-Apr-23 09:33N 35°26' E 139°46'9 8.9
2015-Apr-23 08:33N 35°30' E 139°56'4 4.1
2015-Apr-23 07:30N 35°28' E 140°01'0 0.0
2015-Apr-23 06:18N 35°28' E 140°01'0 0.0
2015-Apr-23 05:24N 35°28' E 140°01'0 0.0
2015-Apr-23 04:30N 35°28' E 140°01'0 0.0
2015-Apr-23 03:31N 35°28' E 140°01'4 4.3
2015-Apr-23 02:33N 35°29' E 139°56'9 8.6
2015-Apr-23 01:33N 35°31' E 139°46'1 0.6
2015-Apr-23 00:32N 35°32' E 139°45'1 0.7
2015-Apr-22 23:33N 35°31' E 139°46'2 1.8
2015-Apr-22 22:32N 35°29' E 139°47'0 0.0
2015-Apr-22 21:32N 35°29' E 139°47'0 0.0
2015-Apr-22 20:29N 35°29' E 139°47'0 0.0
2015-Apr-22 19:32N 35°29' E 139°47'0 0.0
2015-Apr-22 18:32N 35°29' E 139°47'0 0.0
2015-Apr-22 17:32N 35°29' E 139°47'0 0.1
2015-Apr-22 16:32N 35°29' E 139°47'0 0.0
2015-Apr-22 15:32N 35°29' E 139°47'0 0.0
2015-Apr-22 14:32N 35°29' E 139°47'0 0.0
2015-Apr-22 13:32N 35°29' E 139°47'0 0.0
2015-Apr-22 12:32N 35°29' E 139°47'0 0.0
2015-Apr-22 11:32N 35°29' E 139°47'0 0.0
2015-Apr-22 10:32N 35°29' E 139°47'0 0.1
2015-Apr-22 09:32N 35°29' E 139°47'0 0.0
2015-Apr-22 08:32N 35°29' E 139°47'0 0.0
2015-Apr-22 07:32N 35°29' E 139°47'0 0.0
2015-Apr-22 06:32N 35°29' E 139°47'0 0.0
2015-Apr-22 05:32N 35°29' E 139°47'0 0.0
2015-Apr-22 04:23N 35°29' E 139°47'0 0.1
2015-Apr-22 03:26N 35°29' E 139°47'0 0.1
2015-Apr-22 02:32N 35°29' E 139°47'0 0.0
2015-Apr-22 01:32N 35°29' E 139°47'0 0.0
2015-Apr-22 00:33N 35°29' E 139°47'8 8.4
2015-Apr-21 23:34N 35°21' E 139°45'9 9.0
2015-Apr-21 22:33N 35°12' E 139°47'9 9.2
2015-Apr-21 21:33N 35°04' E 139°42'1010.0
2015-Apr-21 20:33N 34°58' E 139°33'  
2015-Apr-17 01:26N 34°51' E 139°42'17 8.5
2015-Apr-16 23:29N 34°55' E 140°02'8 8.2
2015-Apr-16 22:33N 34°60' E 140°10'22 7.2
2015-Apr-16 19:27N 35°15' E 140°30'15 7.8
2015-Apr-16 17:33N 35°27' E 140°41'73 9.1
2015-Apr-16 09:31N 36°36' E 141°08'  

Dump ship's entire track history